createdAt,value
2022-11-20T00:00:21.822Z,44.91
2022-11-20T00:02:49.182Z,45.32
2022-11-20T00:05:16.322Z,45.39
2022-11-20T00:07:43.423Z,45.13
2022-11-20T00:10:13.338Z,46.42
2022-11-20T00:12:40.460Z,47.90
2022-11-20T00:15:07.812Z,48.17
2022-11-20T00:17:35.157Z,49.14
2022-11-20T00:20:02.258Z,48.04
2022-11-20T00:22:29.363Z,46.12
2022-11-20T00:24:58.292Z,44.13
2022-11-20T00:27:25.396Z,43.84
2022-11-20T00:29:52.506Z,44.76
2022-11-20T00:32:20.081Z,46.11
2022-11-20T00:34:47.173Z,43.64
2022-11-20T00:37:14.352Z,42.89
2022-11-20T00:39:41.731Z,42.94
2022-11-20T00:42:08.832Z,42.88
2022-11-20T00:44:35.918Z,42.09
2022-11-20T00:47:03.287Z,43.04
2022-11-20T00:49:30.383Z,45.69
2022-11-20T00:51:57.477Z,44.45
2022-11-20T00:54:24.861Z,47.41
2022-11-20T00:56:53.894Z,48.50
2022-11-20T00:59:21.330Z,47.58
2022-11-20T01:01:48.949Z,48.93
2022-11-20T01:04:16.049Z,47.06
2022-11-20T01:06:43.157Z,47.36
2022-11-20T01:09:11.933Z,46.59
2022-11-20T01:11:40.545Z,46.98
2022-11-20T01:14:10.705Z,45.61
2022-11-20T01:16:39.078Z,44.49
2022-11-20T01:19:08.047Z,45.09
2022-11-20T01:21:38.830Z,45.12
2022-11-20T01:24:07.972Z,44.57
2022-11-20T01:26:35.731Z,44.70
2022-11-20T01:29:03.334Z,44.25
2022-11-20T01:31:31.649Z,44.42
2022-11-20T01:33:59.804Z,44.21
2022-11-20T01:36:28.040Z,44.43
2022-11-20T01:38:56.045Z,45.02
2022-11-20T01:41:42.452Z,44.24
2022-11-20T01:44:10.397Z,44.03
2022-11-20T01:46:38.248Z,43.43
2022-11-20T01:49:06.717Z,43.59
2022-11-20T01:51:40.997Z,43.17
2022-11-20T01:54:09.389Z,42.88
2022-11-20T01:56:37.764Z,45.40
2022-11-20T01:59:05.226Z,42.49
2022-11-20T02:01:32.417Z,42.88
2022-11-20T02:03:59.884Z,42.42
2022-11-20T02:06:27.615Z,42.35
2022-11-20T02:08:54.725Z,42.56
2022-11-20T02:11:22.295Z,42.42
2022-11-20T02:13:49.470Z,42.23
2022-11-20T02:16:17.995Z,41.61
2022-11-20T02:18:45.551Z,40.88
2022-11-20T02:21:28.005Z,40.34
2022-11-20T02:24:03.098Z,39.68
2022-11-20T02:26:31.150Z,40.19
2022-11-20T02:28:59.164Z,39.74
2022-11-20T02:31:26.289Z,40.20
2022-11-20T02:33:56.930Z,39.99
2022-11-20T02:36:24.390Z,39.74
2022-11-20T02:38:51.628Z,39.89
2022-11-20T02:41:18.749Z,40.96
2022-11-20T02:43:46.109Z,40.14
2022-11-20T02:46:13.279Z,39.87
2022-11-20T02:48:45.998Z,39.80
2022-11-20T02:51:17.475Z,39.76
2022-11-20T02:53:44.579Z,39.84
2022-11-20T02:56:11.693Z,40.30
2022-11-20T02:58:39.051Z,40.91
2022-11-20T03:01:06.256Z,41.12
2022-11-20T03:03:33.583Z,41.50
2022-11-20T03:06:00.975Z,44.00
2022-11-20T03:08:28.075Z,47.03
2022-11-20T03:10:55.204Z,48.28
2022-11-20T03:13:22.572Z,48.62
2022-11-20T03:15:49.718Z,50.88
2022-11-20T03:18:16.826Z,51.45
2022-11-20T03:20:44.178Z,50.19
2022-11-20T03:23:11.285Z,49.47
2022-11-20T03:25:38.392Z,49.72
2022-11-20T03:28:05.867Z,50.23
2022-11-20T03:30:32.969Z,50.60
2022-11-20T03:33:00.122Z,48.15
2022-11-20T03:35:27.470Z,47.63
2022-11-20T03:37:54.571Z,46.10
2022-11-20T03:40:21.698Z,45.04
2022-11-20T03:42:49.108Z,44.72
2022-11-20T03:45:17.460Z,43.26
2022-11-20T03:47:44.998Z,43.66
2022-11-20T03:50:15.842Z,43.56
2022-11-20T03:52:43.061Z,43.62
2022-11-20T03:55:10.435Z,43.20
2022-11-20T03:57:37.815Z,42.79
2022-11-20T04:00:05.582Z,43.07
2022-11-20T04:02:33.012Z,42.52
2022-11-20T04:05:00.177Z,41.62
2022-11-20T04:07:27.382Z,42.27
2022-11-20T04:09:54.838Z,42.07
2022-11-20T04:12:21.943Z,42.21
2022-11-20T04:14:49.101Z,41.76
2022-11-20T04:17:16.764Z,41.65
2022-11-20T04:19:43.882Z,42.50
2022-11-20T04:22:12.581Z,43.38
2022-11-20T04:24:39.937Z,43.30
2022-11-20T04:27:07.117Z,43.71
2022-11-20T04:29:34.365Z,42.85
2022-11-20T04:32:01.746Z,43.35
2022-11-20T04:34:28.836Z,42.57
2022-11-20T04:36:55.923Z,42.94
2022-11-20T04:39:23.575Z,42.37
2022-11-20T04:42:10.856Z,42.35
2022-11-20T04:44:38.234Z,42.47
2022-11-20T04:47:05.346Z,43.52
2022-11-20T04:49:32.841Z,43.01
2022-11-20T04:52:00.240Z,43.43
2022-11-20T04:54:27.350Z,41.47
2022-11-20T04:56:54.465Z,42.71
2022-11-20T04:59:22.038Z,42.86
2022-11-20T05:01:49.666Z,42.22
2022-11-20T05:04:16.772Z,45.16
2022-11-20T05:06:44.143Z,42.92
2022-11-20T05:09:11.264Z,43.34
2022-11-20T05:11:38.363Z,42.83
2022-11-20T05:14:05.748Z,42.46
2022-11-20T05:16:34.860Z,43.19
2022-11-20T05:19:01.955Z,43.83
2022-11-20T05:21:31.011Z,44.21
2022-11-20T05:23:58.126Z,44.29
2022-11-20T05:26:25.229Z,43.23
2022-11-20T05:28:52.666Z,42.86
2022-11-20T05:31:26.329Z,41.91
2022-11-20T05:33:55.002Z,41.88
2022-11-20T05:36:22.109Z,42.16
2022-11-20T05:38:51.076Z,43.08
2022-11-20T05:41:19.950Z,42.48
2022-11-20T05:43:47.558Z,41.77
2022-11-20T05:46:15.259Z,43.33
2022-11-20T05:48:43.129Z,43.37
2022-11-20T05:51:10.689Z,43.11
2022-11-20T05:53:37.790Z,43.24
2022-11-20T05:56:06.292Z,44.00
2022-11-20T05:58:33.469Z,42.35
2022-11-20T06:01:04.452Z,42.48
2022-11-20T06:03:31.804Z,42.05
2022-11-20T06:05:59.812Z,41.95
2022-11-20T06:08:26.928Z,42.68
2022-11-20T06:10:54.824Z,42.66
2022-11-20T06:13:21.923Z,42.76
2022-11-20T06:15:52.529Z,42.94
2022-11-20T06:18:20.009Z,43.67
2022-11-20T06:20:47.255Z,43.30
2022-11-20T06:23:14.403Z,42.74
2022-11-20T06:25:42.394Z,43.09
2022-11-20T06:28:09.905Z,42.59
2022-11-20T06:30:37.010Z,43.43
2022-11-20T06:33:04.490Z,44.63
2022-11-20T06:35:31.605Z,44.54
2022-11-20T06:37:58.795Z,46.27
2022-11-20T06:40:26.172Z,46.00
2022-11-20T06:42:54.703Z,46.06
2022-11-20T06:45:22.150Z,44.72
2022-11-20T06:47:49.525Z,45.65
2022-11-20T06:50:16.654Z,45.78
2022-11-20T06:52:43.952Z,44.15
2022-11-20T06:55:11.339Z,44.08
2022-11-20T06:57:38.459Z,44.01
2022-11-20T07:00:05.781Z,46.01
2022-11-20T07:02:33.139Z,46.93
2022-11-20T07:05:00.239Z,48.05
2022-11-20T07:07:27.384Z,47.24
2022-11-20T07:09:54.785Z,46.80
2022-11-20T07:12:21.876Z,45.49
2022-11-20T07:14:48.967Z,44.41
2022-11-20T07:17:16.370Z,47.53
2022-11-20T07:19:43.891Z,45.81
2022-11-20T07:22:11.012Z,48.89
2022-11-20T07:24:41.899Z,48.97
2022-11-20T07:27:12.866Z,48.78
2022-11-20T07:29:40.613Z,50.71
2022-11-20T07:32:07.728Z,48.08
2022-11-20T07:34:34.954Z,51.32
2022-11-20T07:37:07.478Z,50.38
2022-11-20T07:39:37.252Z,52.40
2022-11-20T07:42:04.642Z,50.09
2022-11-20T07:44:31.770Z,49.40
2022-11-20T07:46:58.891Z,49.19
2022-11-20T07:49:26.256Z,47.80
2022-11-20T07:52:00.426Z,48.92
2022-11-20T07:54:30.600Z,47.86
2022-11-20T07:56:57.726Z,47.95
2022-11-20T07:59:24.842Z,48.20
2022-11-20T08:01:52.235Z,47.07
2022-11-20T08:04:19.788Z,46.84
2022-11-20T08:06:46.907Z,48.81
2022-11-20T08:09:14.004Z,47.53
2022-11-20T08:12:00.126Z,47.74
2022-11-20T08:14:28.659Z,47.36
2022-11-20T08:16:56.024Z,49.69
2022-11-20T08:19:23.350Z,47.36
2022-11-20T08:21:50.651Z,46.33
2022-11-20T08:24:18.042Z,46.04
2022-11-20T08:26:45.153Z,47.31
2022-11-20T08:29:12.249Z,46.99
2022-11-20T08:31:39.610Z,46.86
2022-11-20T08:34:09.530Z,47.39
2022-11-20T08:36:37.278Z,47.80
2022-11-20T08:39:04.669Z,48.12
2022-11-20T08:41:34.145Z,48.16
2022-11-20T08:44:02.765Z,45.99
2022-11-20T08:46:34.865Z,47.13
2022-11-20T08:49:01.979Z,48.52
2022-11-20T08:51:29.327Z,47.91
2022-11-20T08:53:56.439Z,48.13
2022-11-20T08:56:23.568Z,46.42
2022-11-20T09:01:38.797Z,48.21
2022-11-20T09:04:06.228Z,46.49
2022-11-20T09:06:33.342Z,46.42
2022-11-20T09:09:06.080Z,46.53
2022-11-20T09:11:35.338Z,46.20
2022-11-20T09:14:03.829Z,45.59
2022-11-20T09:16:30.996Z,44.54
2022-11-20T09:19:28.278Z,43.58
2022-11-20T09:21:46.424Z,43.25
2022-11-20T09:24:13.779Z,45.08
2022-11-20T09:26:40.895Z,44.46
2022-11-20T09:29:08.039Z,44.31
2022-11-20T09:31:35.419Z,43.41
2022-11-20T09:34:02.537Z,43.57
2022-11-20T09:36:29.731Z,43.22
2022-11-20T09:38:57.838Z,42.95
2022-11-20T09:41:24.858Z,43.58
2022-11-20T09:43:56.054Z,42.95
2022-11-20T09:46:27.681Z,43.09
2022-11-20T09:49:02.023Z,43.79
2022-11-20T09:51:41.714Z,47.78
2022-11-20T09:54:11.729Z,44.08
2022-11-20T09:56:40.276Z,45.94
2022-11-20T09:59:07.664Z,45.41
2022-11-20T10:01:35.387Z,45.29
2022-11-20T10:04:03.884Z,46.98
2022-11-20T10:06:42.808Z,47.34
2022-11-20T10:09:13.122Z,46.55
2022-11-20T10:11:49.105Z,46.25
2022-11-20T10:14:16.481Z,49.48
2022-11-20T10:17:02.096Z,46.98
2022-11-20T10:19:44.730Z,52.56
2022-11-20T10:22:20.847Z,52.42
2022-11-20T10:24:48.149Z,52.55
2022-11-20T10:27:15.803Z,50.40
2022-11-20T10:29:43.503Z,51.03
2022-11-20T10:32:12.401Z,51.37
2022-11-20T10:34:45.488Z,49.46
2022-11-20T10:37:14.149Z,49.80
2022-11-20T10:39:47.428Z,49.22
2022-11-20T10:42:16.766Z,51.47
2022-11-20T10:45:05.998Z,51.10
2022-11-20T10:47:34.000Z,51.62
2022-11-20T10:50:06.100Z,48.76
2022-11-20T10:52:52.336Z,47.91
2022-11-20T10:55:34.375Z,49.56
2022-11-20T10:58:08.032Z,50.01
2022-11-20T11:00:35.216Z,49.03
2022-11-20T11:03:06.083Z,48.61
2022-11-20T11:05:35.702Z,50.59
2022-11-20T11:08:03.154Z,49.25
2022-11-20T11:10:35.717Z,47.79
2022-11-20T11:13:03.058Z,48.60
2022-11-20T11:15:31.495Z,50.14
2022-11-20T11:17:58.619Z,47.94
2022-11-20T11:20:26.500Z,51.17
2022-11-20T11:22:57.784Z,48.94
2022-11-20T11:25:34.941Z,48.24
2022-11-20T11:28:03.810Z,49.05
2022-11-20T11:30:31.986Z,48.81
2022-11-20T11:33:10.655Z,47.03
2022-11-20T11:35:59.758Z,47.52
2022-11-20T11:38:36.905Z,52.41
2022-11-20T11:41:07.057Z,49.42
2022-11-20T11:43:54.131Z,51.62
2022-11-20T11:46:21.443Z,50.86
2022-11-20T11:49:07.386Z,51.85
2022-11-20T11:52:07.599Z,53.94
2022-11-20T11:54:40.530Z,52.16
2022-11-20T11:57:31.243Z,50.48
2022-11-20T12:00:07.170Z,49.39
2022-11-20T12:02:43.715Z,51.66
2022-11-20T12:05:21.036Z,50.31
2022-11-20T12:07:49.787Z,51.86
2022-11-20T12:10:18.934Z,50.27
2022-11-20T12:12:46.538Z,52.59
2022-11-20T12:15:14.484Z,48.76
2022-11-20T12:17:41.591Z,49.40
2022-11-20T12:20:13.848Z,48.67
2022-11-20T12:22:48.197Z,49.74
2022-11-20T12:25:16.588Z,52.06
2022-11-20T12:28:04.996Z,51.09
2022-11-20T12:30:33.244Z,50.87
2022-11-20T12:33:05.264Z,49.12
2022-11-20T12:35:51.563Z,50.42
2022-11-20T12:38:28.614Z,53.28
2022-11-20T12:41:15.013Z,52.09
2022-11-20T12:44:21.238Z,51.95
2022-11-20T12:47:12.194Z,50.71
2022-11-20T12:49:44.605Z,51.96
2022-11-20T12:52:17.956Z,48.60
2022-11-20T12:54:55.442Z,47.95
2022-11-20T12:57:22.512Z,47.91
2022-11-20T13:00:11.222Z,46.38
2022-11-20T13:02:38.360Z,47.06
2022-11-20T13:05:08.703Z,45.15
2022-11-20T13:07:36.867Z,45.93
2022-11-20T13:10:07.577Z,46.05
2022-11-20T13:12:38.640Z,46.74
2022-11-20T13:15:13.017Z,46.11
2022-11-20T13:17:53.708Z,45.80
2022-11-20T13:20:20.968Z,45.43
2022-11-20T13:22:59.206Z,46.07
2022-11-20T13:25:30.378Z,46.00
2022-11-20T13:27:58.795Z,46.74
2022-11-20T13:30:29.715Z,45.36
2022-11-20T13:33:03.674Z,45.72
2022-11-20T13:35:35.256Z,46.90
2022-11-20T13:38:04.469Z,45.54
2022-11-20T13:40:32.189Z,45.44
2022-11-20T13:43:05.641Z,46.29
2022-11-20T13:45:33.420Z,47.46
2022-11-20T13:48:18.234Z,46.53
2022-11-20T13:50:56.050Z,46.59
2022-11-20T13:53:27.796Z,47.30
2022-11-20T13:55:55.796Z,48.42
2022-11-20T13:58:42.362Z,46.95
2022-11-20T14:01:10.268Z,47.79
2022-11-20T14:04:05.071Z,48.92
2022-11-20T14:06:33.708Z,48.06
2022-11-20T14:09:01.373Z,47.48
2022-11-20T14:11:29.392Z,47.48
2022-11-20T14:13:56.946Z,45.57
2022-11-20T14:16:26.008Z,47.54
2022-11-20T14:18:53.713Z,47.15
2022-11-20T14:21:30.916Z,46.45
2022-11-20T14:24:05.752Z,47.56
2022-11-20T14:26:33.609Z,46.01
2022-11-20T14:29:01.617Z,44.97
2022-11-20T14:31:29.248Z,45.42
2022-11-20T14:33:56.967Z,44.58
2022-11-20T14:36:25.246Z,46.59
2022-11-20T14:38:52.661Z,45.74
2022-11-20T14:41:22.504Z,46.81
2022-11-20T14:43:55.362Z,46.06
2022-11-20T14:46:22.761Z,48.05
2022-11-20T14:48:55.509Z,45.41
2022-11-20T14:51:33.238Z,45.10
2022-11-20T14:54:13.955Z,45.21
2022-11-20T14:56:41.667Z,45.06
2022-11-20T14:59:10.200Z,44.51
2022-11-20T15:01:38.865Z,45.92
2022-11-20T15:04:15.646Z,47.18
2022-11-20T15:06:55.024Z,44.70
2022-11-20T15:09:22.838Z,44.17
2022-11-20T15:11:57.385Z,43.81
2022-11-20T15:14:26.205Z,43.32
2022-11-20T15:16:56.585Z,44.32
2022-11-20T15:19:24.777Z,42.86
2022-11-20T15:21:52.041Z,43.06
2022-11-20T15:24:19.796Z,42.11
2022-11-20T15:26:47.025Z,41.71
2022-11-20T15:29:15.013Z,41.39
2022-11-20T15:31:42.807Z,41.62
2022-11-20T15:34:13.582Z,40.96
2022-11-20T15:36:41.401Z,40.68
2022-11-20T15:39:09.784Z,40.61
2022-11-20T15:41:37.492Z,40.51
2022-11-20T15:44:05.369Z,40.21
2022-11-20T15:46:39.598Z,39.76
2022-11-20T15:49:07.417Z,40.35
2022-11-20T15:51:35.993Z,40.59
2022-11-20T15:54:10.911Z,40.39
2022-11-20T15:56:42.068Z,40.00
2022-11-20T15:59:09.728Z,40.63
2022-11-20T16:01:37.574Z,40.58
2022-11-20T16:04:06.491Z,40.52
2022-11-20T16:06:34.166Z,40.42
2022-11-20T16:09:01.851Z,40.65
2022-11-20T16:11:29.619Z,40.44
2022-11-20T16:14:16.009Z,40.62
2022-11-20T16:16:44.803Z,40.72
2022-11-20T16:19:16.122Z,40.21
2022-11-20T16:21:43.919Z,40.55
2022-11-20T16:24:13.376Z,40.47
2022-11-20T16:26:41.594Z,40.60
2022-11-20T16:29:09.750Z,40.25
2022-11-20T16:31:37.529Z,41.23
2022-11-20T16:34:12.019Z,40.95
2022-11-20T16:36:40.973Z,42.12
2022-11-20T16:39:08.796Z,42.55
2022-11-20T16:41:36.755Z,42.13
2022-11-20T16:44:08.131Z,41.98
2022-11-20T16:46:36.008Z,41.93
2022-11-20T16:49:04.936Z,42.07
2022-11-20T16:51:36.840Z,42.90
2022-11-20T16:54:05.117Z,42.19
2022-11-20T16:56:33.011Z,41.66
2022-11-20T16:59:04.415Z,41.17
2022-11-20T17:01:32.702Z,41.43
2022-11-20T17:04:01.273Z,41.35
2022-11-20T17:06:33.136Z,41.05
2022-11-20T17:09:00.802Z,41.16
2022-11-20T17:11:28.710Z,41.24
2022-11-20T17:13:58.422Z,41.45
2022-11-20T17:16:26.589Z,41.26
2022-11-20T17:18:58.319Z,41.38
2022-11-20T17:21:30.632Z,41.09
2022-11-20T17:24:01.020Z,40.93
2022-11-20T17:26:29.217Z,40.74
2022-11-20T17:29:04.397Z,42.11
2022-11-20T17:31:32.842Z,41.83
2022-11-20T17:34:03.762Z,41.29
2022-11-20T17:36:31.806Z,41.42
2022-11-20T17:38:59.964Z,42.31
2022-11-20T17:41:28.743Z,41.72
2022-11-20T17:43:57.082Z,42.08
2022-11-20T17:46:26.592Z,42.27
2022-11-20T17:48:55.214Z,42.11
2022-11-20T17:51:27.196Z,41.49
2022-11-20T17:53:56.281Z,42.23
2022-11-20T17:56:43.277Z,42.41
2022-11-20T17:59:15.290Z,42.92
2022-11-20T18:01:45.807Z,43.07
2022-11-20T18:04:13.770Z,42.61
2022-11-20T18:06:41.480Z,43.70
2022-11-20T18:09:11.369Z,43.30
2022-11-20T18:11:40.020Z,41.90
2022-11-20T18:14:26.883Z,42.43
2022-11-20T18:17:04.079Z,42.34
2022-11-20T18:19:38.776Z,42.11
2022-11-20T18:22:08.909Z,41.99
2022-11-20T18:24:37.084Z,44.14
2022-11-20T18:27:06.135Z,43.03
2022-11-20T18:29:35.010Z,42.77
2022-11-20T18:32:02.960Z,42.37
2022-11-20T18:34:30.567Z,42.24
2022-11-20T18:36:58.657Z,42.15
2022-11-20T18:39:27.515Z,42.29
2022-11-20T18:42:13.601Z,42.39
2022-11-20T18:44:56.838Z,42.51
2022-11-20T18:47:25.815Z,42.54
2022-11-20T18:49:54.443Z,42.52
2022-11-20T18:52:26.980Z,42.92
2022-11-20T18:54:57.207Z,43.18
2022-11-20T18:57:25.238Z,43.22
2022-11-20T18:59:54.060Z,43.36
2022-11-20T19:02:22.304Z,43.69
2022-11-20T19:04:50.162Z,43.18
2022-11-20T19:07:18.148Z,42.30
2022-11-20T19:09:48.648Z,41.42
2022-11-20T19:12:16.945Z,41.81
2022-11-20T19:14:48.182Z,41.65
2022-11-20T19:17:17.541Z,41.58
2022-11-20T19:19:45.234Z,41.82
2022-11-20T19:22:12.645Z,41.20
2022-11-20T19:24:40.724Z,41.14
2022-11-20T19:27:08.460Z,41.80
2022-11-20T19:29:37.624Z,41.78
2022-11-20T19:32:05.608Z,41.53
2022-11-20T19:34:33.786Z,40.82
2022-11-20T19:37:01.444Z,41.97
2022-11-20T19:39:30.051Z,43.69
2022-11-20T19:41:58.091Z,44.22
2022-11-20T19:44:25.814Z,44.05
2022-11-20T19:46:53.560Z,43.64
2022-11-20T19:49:23.484Z,43.09
2022-11-20T19:51:54.109Z,42.77
2022-11-20T19:54:21.337Z,42.65
2022-11-20T19:56:52.467Z,42.92
2022-11-20T19:59:20.503Z,43.17
2022-11-20T20:04:33.313Z,42.92
2022-11-20T20:07:04.182Z,42.42
2022-11-20T20:09:31.882Z,42.14
2022-11-20T20:11:59.965Z,41.93
2022-11-20T20:14:27.620Z,41.97
2022-11-20T20:16:56.123Z,42.17
2022-11-20T20:19:23.914Z,41.83
2022-11-20T20:21:51.795Z,42.02
2022-11-20T20:24:19.592Z,41.85
2022-11-20T20:26:49.019Z,43.04
2022-11-20T20:29:16.744Z,43.24
2022-11-20T20:31:44.543Z,42.71
2022-11-20T20:34:12.575Z,42.23
2022-11-20T20:36:40.269Z,42.02
2022-11-20T20:39:07.873Z,42.39
2022-11-20T20:41:37.060Z,41.97
2022-11-20T20:44:23.701Z,42.35
2022-11-20T20:46:52.617Z,42.16
2022-11-20T20:49:21.328Z,42.34
2022-11-20T20:51:49.469Z,41.66
2022-11-20T20:54:18.477Z,42.79
2022-11-20T20:56:46.448Z,42.24
2022-11-20T20:59:14.237Z,41.63
2022-11-20T21:01:42.480Z,41.65
2022-11-20T21:04:11.524Z,41.89
2022-11-20T21:06:39.125Z,42.09
2022-11-20T21:09:06.599Z,41.91
2022-11-20T21:11:34.156Z,42.04
2022-11-20T21:14:01.528Z,42.45
2022-11-20T21:16:40.990Z,42.32
2022-11-20T21:19:08.871Z,42.26
2022-11-20T21:21:55.525Z,42.33
2022-11-20T21:24:23.070Z,42.07
2022-11-20T21:26:52.429Z,42.33
2022-11-20T21:29:20.265Z,42.75
2022-11-20T21:31:47.626Z,42.83
2022-11-20T21:34:15.750Z,42.40
2022-11-20T21:36:42.943Z,42.17
2022-11-20T21:39:10.883Z,42.32
2022-11-20T21:41:38.271Z,42.35
2022-11-20T21:46:53.191Z,42.88
2022-11-20T21:49:20.384Z,42.44
2022-11-20T21:51:47.652Z,43.14
2022-11-20T21:54:15.076Z,43.11
2022-11-20T21:56:42.215Z,42.93
2022-11-20T21:59:13.246Z,43.02
2022-11-20T22:01:41.563Z,42.64
2022-11-20T22:04:12.561Z,43.34
2022-11-20T22:06:39.672Z,43.19
2022-11-20T22:09:06.803Z,42.92
2022-11-20T22:11:34.158Z,43.17
2022-11-20T22:14:19.894Z,43.09
2022-11-20T22:16:47.398Z,42.84
2022-11-20T22:19:18.999Z,43.12
2022-11-20T22:21:47.312Z,42.59
2022-11-20T22:24:15.262Z,42.07
2022-11-20T22:26:42.494Z,42.56
2022-11-20T22:29:14.376Z,42.54
2022-11-20T22:31:41.983Z,42.68
2022-11-20T22:34:10.810Z,42.42
2022-11-20T22:36:38.055Z,42.23
2022-11-20T22:39:05.317Z,41.90
2022-11-20T22:41:33.757Z,41.47
2022-11-20T22:44:01.918Z,41.67
2022-11-20T22:46:29.677Z,41.40
2022-11-20T22:48:57.972Z,40.79
2022-11-20T22:51:25.809Z,40.59
2022-11-20T22:53:53.015Z,40.66
2022-11-20T22:56:20.556Z,40.59
2022-11-20T22:58:48.468Z,40.38
2022-11-20T23:01:16.440Z,40.81
2022-11-20T23:03:48.348Z,40.76
2022-11-20T23:06:16.013Z,40.88
2022-11-20T23:08:43.503Z,41.26
2022-11-20T23:11:19.893Z,41.23
2022-11-20T23:13:47.471Z,41.67
2022-11-20T23:16:15.432Z,41.93
2022-11-20T23:18:42.711Z,41.43
2022-11-20T23:21:11.138Z,42.67
2022-11-20T23:23:38.262Z,42.28
2022-11-20T23:26:06.192Z,41.90
2022-11-20T23:28:33.654Z,41.56
2022-11-20T23:31:01.072Z,41.61
2022-11-20T23:33:28.346Z,41.71
2022-11-20T23:35:55.732Z,41.31
2022-11-20T23:38:22.929Z,41.40
2022-11-20T23:40:50.733Z,41.34
2022-11-20T23:43:19.146Z,41.17
2022-11-20T23:45:47.038Z,41.23
2022-11-20T23:48:14.294Z,41.08
2022-11-20T23:50:41.950Z,41.36
2022-11-20T23:53:09.204Z,41.46
2022-11-20T23:55:36.300Z,41.52
2022-11-20T23:58:03.972Z,41.77
